ROU1810 CYYZ-MMUN
Flight info
| Callsign | ROU1810 |
|---|---|
| Flight time | 3h 43m |
| Altitude | 36000 |
| Route | BETES3 AIRRA Q103 SLOJO Q75 ENEME DCT CTY DCT KNOST M219 NAVVL L465 SHARQ UM463 WALKY UB879 NOSAT NOSAT1B |
| Aircraft | A320/M-SDE3FGHIRWY/LB1 |
Departure
| Time | 2026-05-07 12:52 |
|---|---|
| Airport | Toronto Pearson International Airport (CYYZ) |
Arrival
| Time | 2026-05-07 16:35 |
|---|---|
| Airport | Cancún International Airport (MMUN) |
| Time | Latitude | Longitude | Altitude | Speed | Heading |
|---|---|---|---|---|---|
| 2026-05-07 12:14 | 43.67974 | -79.61497 | 562 ft | 0 kts | 316° |
| 2026-05-07 12:41 | 43.67971 | -79.61493 | 561 ft | 3 kts | 316° |
| 2026-05-07 12:41 | 43.67955 | -79.61471 | 565 ft | 3 kts | 309° |
| 2026-05-07 12:41 | 43.67943 | -79.61445 | 561 ft | 3 kts | 291° |
| 2026-05-07 12:41 | 43.67939 | -79.61420 | 561 ft | 3 kts | 239° |
| 2026-05-07 12:42 | 43.67945 | -79.61412 | 564 ft | 1 kts | 193° |
| 2026-05-07 12:42 | 43.67948 | -79.61411 | 563 ft | 0 kts | 193° |
| 2026-05-07 12:44 | 43.67946 | -79.61411 | 561 ft | 2 kts | 193° |
| 2026-05-07 12:44 | 43.67891 | -79.61443 | 569 ft | 11 kts | 216° |
| 2026-05-07 12:45 | 43.67832 | -79.61525 | 568 ft | 13 kts | 226° |
| 2026-05-07 12:45 | 43.67764 | -79.61624 | 569 ft | 14 kts | 226° |
| 2026-05-07 12:45 | 43.67678 | -79.61632 | 568 ft | 14 kts | 181° |
| 2026-05-07 12:45 | 43.67642 | -79.61732 | 572 ft | 14 kts | 296° |
| 2026-05-07 12:46 | 43.67715 | -79.61832 | 570 ft | 16 kts | 316° |
| 2026-05-07 12:46 | 43.67802 | -79.61946 | 570 ft | 18 kts | 317° |
| 2026-05-07 12:46 | 43.67857 | -79.62016 | 562 ft | 0 kts | 317° |
| 2026-05-07 12:46 | 43.67868 | -79.62030 | 562 ft | 4 kts | 317° |
| 2026-05-07 12:47 | 43.67941 | -79.62081 | 565 ft | 16 kts | 339° |
| 2026-05-07 12:47 | 43.68034 | -79.62183 | 570 ft | 18 kts | 316° |
| 2026-05-07 12:47 | 43.68132 | -79.62310 | 569 ft | 20 kts | 317° |
| 2026-05-07 12:47 | 43.68243 | -79.62447 | 562 ft | 22 kts | 320° |
| 2026-05-07 12:48 | 43.68360 | -79.62596 | 565 ft | 24 kts | 316° |
| 2026-05-07 12:48 | 43.68486 | -79.62758 | 562 ft | 26 kts | 317° |
| 2026-05-07 12:48 | 43.68622 | -79.62936 | 568 ft | 28 kts | 316° |
| 2026-05-07 12:48 | 43.68756 | -79.63110 | 564 ft | 23 kts | 316° |
| 2026-05-07 12:49 | 43.68855 | -79.63239 | 562 ft | 16 kts | 317° |
| 2026-05-07 12:49 | 43.68923 | -79.63327 | 572 ft | 13 kts | 316° |
| 2026-05-07 12:49 | 43.68992 | -79.63414 | 567 ft | 15 kts | 315° |
| 2026-05-07 12:49 | 43.69071 | -79.63521 | 564 ft | 17 kts | 320° |
| 2026-05-07 12:50 | 43.69153 | -79.63482 | 572 ft | 14 kts | 46° |
| 2026-05-07 12:50 | 43.69250 | -79.63423 | 566 ft | 17 kts | 2° |
| 2026-05-07 12:50 | 43.69366 | -79.63434 | 565 ft | 14 kts | 328° |
| 2026-05-07 12:50 | 43.69411 | -79.63510 | 560 ft | 4 kts | 261° |
| 2026-05-07 12:51 | 43.69395 | -79.63535 | 560 ft | 0 kts | 226° |
| 2026-05-07 12:51 | 43.69324 | -79.63637 | 568 ft | 44 kts | 226° |
| 2026-05-07 12:51 | 43.68944 | -79.64190 | 573 ft | 111 kts | 226° |
| 2026-05-07 12:51 | 43.68283 | -79.65149 | 580 ft | 161 kts | 226° |
| 2026-05-07 12:52 | 43.67509 | -79.66324 | 1110 ft | 168 kts | 232° |
| 2026-05-07 12:52 | 43.66803 | -79.67644 | 1765 ft | 173 kts | 234° |
| 2026-05-07 12:52 | 43.66103 | -79.69027 | 2273 ft | 180 kts | 235° |
| 2026-05-07 12:52 | 43.65376 | -79.70471 | 2815 ft | 183 kts | 236° |
| 2026-05-07 12:53 | 43.64652 | -79.71905 | 3357 ft | 186 kts | 237° |
| 2026-05-07 12:53 | 43.63852 | -79.73356 | 3741 ft | 201 kts | 223° |
| 2026-05-07 12:53 | 43.62514 | -79.74216 | 3994 ft | 230 kts | 189° |
| 2026-05-07 12:53 | 43.60843 | -79.73975 | 4356 ft | 257 kts | 163° |
| 2026-05-07 12:54 | 43.59099 | -79.73208 | 5031 ft | 266 kts | 167° |
| 2026-05-07 12:54 | 43.57282 | -79.72602 | 5852 ft | 270 kts | 170° |
| 2026-05-07 12:54 | 43.55434 | -79.72059 | 6671 ft | 273 kts | 171° |
| 2026-05-07 12:54 | 43.53562 | -79.71518 | 7439 ft | 277 kts | 172° |
| 2026-05-07 12:55 | 43.51658 | -79.70948 | 8199 ft | 281 kts | 171° |
| 2026-05-07 12:55 | 43.49730 | -79.70352 | 8947 ft | 286 kts | 172° |
| 2026-05-07 12:55 | 43.47780 | -79.69734 | 9669 ft | 290 kts | 172° |
| 2026-05-07 12:55 | 43.45797 | -79.69100 | 10302 ft | 298 kts | 173° |
| 2026-05-07 12:56 | 43.43683 | -79.68646 | 10488 ft | 317 kts | 181° |
| 2026-05-07 12:56 | 43.41418 | -79.68680 | 10623 ft | 335 kts | 191° |
| 2026-05-07 12:56 | 43.39086 | -79.69279 | 10858 ft | 346 kts | 201° |
| 2026-05-07 12:56 | 43.36820 | -79.70408 | 11401 ft | 348 kts | 206° |
| 2026-05-07 12:57 | 43.34582 | -79.71615 | 12053 ft | 351 kts | 206° |
| 2026-05-07 12:57 | 43.32300 | -79.72829 | 12716 ft | 352 kts | 207° |
| 2026-05-07 12:57 | 43.30013 | -79.74044 | 13368 ft | 353 kts | 207° |
| 2026-05-07 12:57 | 43.27718 | -79.75267 | 13964 ft | 355 kts | 207° |
| 2026-05-07 12:58 | 43.25397 | -79.76453 | 14526 ft | 360 kts | 204° |
| 2026-05-07 12:58 | 43.22956 | -79.77314 | 15065 ft | 364 kts | 201° |
| 2026-05-07 12:58 | 43.20484 | -79.78150 | 15617 ft | 366 kts | 201° |
| 2026-05-07 12:58 | 43.18006 | -79.78987 | 16153 ft | 368 kts | 201° |
| 2026-05-07 12:59 | 43.15509 | -79.79832 | 16696 ft | 370 kts | 202° |
| 2026-05-07 12:59 | 43.13003 | -79.80682 | 17223 ft | 372 kts | 202° |
| 2026-05-07 12:59 | 43.10480 | -79.81536 | 17756 ft | 374 kts | 202° |
| 2026-05-07 12:59 | 43.07942 | -79.82397 | 18273 ft | 376 kts | 202° |
| 2026-05-07 13:00 | 43.05394 | -79.83260 | 18773 ft | 379 kts | 202° |
| 2026-05-07 13:00 | 43.02827 | -79.84131 | 19287 ft | 381 kts | 202° |
| 2026-05-07 13:00 | 43.00251 | -79.85003 | 19814 ft | 382 kts | 202° |
| 2026-05-07 13:00 | 42.97662 | -79.85871 | 20339 ft | 383 kts | 202° |
| 2026-05-07 13:01 | 42.95071 | -79.86736 | 20824 ft | 384 kts | 203° |
| 2026-05-07 13:01 | 42.92506 | -79.87599 | 21279 ft | 385 kts | 203° |
| 2026-05-07 13:01 | 42.89899 | -79.88476 | 21720 ft | 387 kts | 203° |
| 2026-05-07 13:01 | 42.87272 | -79.89356 | 22145 ft | 388 kts | 203° |
| 2026-05-07 13:02 | 42.84643 | -79.90236 | 22571 ft | 389 kts | 203° |
| 2026-05-07 13:02 | 42.82004 | -79.91092 | 22969 ft | 392 kts | 202° |
| 2026-05-07 13:02 | 42.79320 | -79.91850 | 23383 ft | 395 kts | 201° |
| 2026-05-07 13:02 | 42.76615 | -79.92535 | 23764 ft | 397 kts | 200° |
| 2026-05-07 13:03 | 42.73894 | -79.93189 | 24155 ft | 398 kts | 200° |
| 2026-05-07 13:03 | 42.71163 | -79.93836 | 24525 ft | 399 kts | 200° |
| 2026-05-07 13:03 | 42.68431 | -79.94495 | 24896 ft | 400 kts | 201° |
| 2026-05-07 13:03 | 42.65694 | -79.95175 | 25281 ft | 400 kts | 201° |
| 2026-05-07 13:04 | 42.62956 | -79.95866 | 25641 ft | 401 kts | 201° |
| 2026-05-07 13:04 | 42.60217 | -79.96562 | 26073 ft | 399 kts | 202° |
| 2026-05-07 13:04 | 42.57495 | -79.97254 | 26585 ft | 396 kts | 202° |
| 2026-05-07 13:04 | 42.54795 | -79.97942 | 27095 ft | 393 kts | 202° |
| 2026-05-07 13:05 | 42.52120 | -79.98622 | 27631 ft | 390 kts | 202° |
| 2026-05-07 13:05 | 42.49456 | -79.99296 | 28146 ft | 387 kts | 203° |
| 2026-05-07 13:05 | 42.46824 | -79.99960 | 28651 ft | 383 kts | 204° |
| 2026-05-07 13:05 | 42.44213 | -80.00619 | 29132 ft | 380 kts | 204° |
| 2026-05-07 13:06 | 42.42493 | -80.01054 | 29438 ft | 379 kts | 204° |
| 2026-05-07 13:06 | 42.39905 | -80.01710 | 29911 ft | 376 kts | 205° |
| 2026-05-07 13:06 | 42.36506 | -80.02568 | 30539 ft | 373 kts | 205° |
| 2026-05-07 13:06 | 42.33962 | -80.03211 | 30960 ft | 372 kts | 205° |
| 2026-05-07 13:07 | 42.32244 | -80.03649 | 31224 ft | 372 kts | 205° |
| 2026-05-07 13:07 | 42.29703 | -80.04298 | 31585 ft | 372 kts | 205° |
| 2026-05-07 13:07 | 42.27160 | -80.04944 | 31947 ft | 372 kts | 205° |
| 2026-05-07 13:07 | 42.24578 | -80.05470 | 32300 ft | 382 kts | 199° |
| 2026-05-07 13:08 | 42.21880 | -80.05561 | 32668 ft | 390 kts | 196° |
| 2026-05-07 13:08 | 42.19170 | -80.05573 | 33043 ft | 390 kts | 196° |
| 2026-05-07 13:08 | 42.16458 | -80.05585 | 33384 ft | 390 kts | 196° |
| 2026-05-07 13:08 | 42.13741 | -80.05597 | 33720 ft | 391 kts | 196° |
| 2026-05-07 13:09 | 42.11022 | -80.05609 | 34065 ft | 391 kts | 196° |
| 2026-05-07 13:09 | 42.08293 | -80.05624 | 34409 ft | 390 kts | 196° |
| 2026-05-07 13:09 | 42.05578 | -80.05646 | 34710 ft | 390 kts | 196° |
| 2026-05-07 13:09 | 42.02861 | -80.05671 | 34986 ft | 391 kts | 196° |
| 2026-05-07 13:10 | 42.00136 | -80.05693 | 35245 ft | 392 kts | 195° |
| 2026-05-07 13:10 | 41.97440 | -80.05714 | 35497 ft | 393 kts | 195° |
| 2026-05-07 13:10 | 41.94670 | -80.05736 | 35742 ft | 393 kts | 195° |
| 2026-05-07 13:10 | 41.91965 | -80.05759 | 35923 ft | 395 kts | 195° |
| 2026-05-07 13:11 | 41.86390 | -80.05819 | 35995 ft | 406 kts | 195° |
| 2026-05-07 13:11 | 41.80655 | -80.05875 | 35990 ft | 415 kts | 194° |
| 2026-05-07 13:12 | 41.74863 | -80.05890 | 35985 ft | 416 kts | 194° |
| 2026-05-07 13:12 | 41.69065 | -80.05916 | 35994 ft | 417 kts | 194° |
| 2026-05-07 13:13 | 41.63264 | -80.05960 | 35993 ft | 416 kts | 194° |
| 2026-05-07 13:13 | 41.57515 | -80.06007 | 35986 ft | 416 kts | 194° |
| 2026-05-07 13:14 | 41.51729 | -80.06049 | 35999 ft | 416 kts | 195° |
| 2026-05-07 13:14 | 41.45941 | -80.06088 | 36000 ft | 416 kts | 194° |
| 2026-05-07 13:15 | 41.40156 | -80.06135 | 36007 ft | 415 kts | 195° |
| 2026-05-07 13:15 | 41.34372 | -80.06186 | 36009 ft | 415 kts | 195° |
| 2026-05-07 13:16 | 41.28591 | -80.06231 | 36009 ft | 415 kts | 195° |
| 2026-05-07 13:16 | 41.22844 | -80.06272 | 36011 ft | 415 kts | 195° |
| 2026-05-07 13:17 | 41.17064 | -80.06302 | 36016 ft | 415 kts | 195° |
| 2026-05-07 13:17 | 41.11292 | -80.06338 | 36024 ft | 414 kts | 196° |
| 2026-05-07 13:18 | 41.05531 | -80.06387 | 36028 ft | 414 kts | 196° |
| 2026-05-07 13:18 | 40.99778 | -80.06431 | 36028 ft | 413 kts | 196° |
| 2026-05-07 13:19 | 40.94068 | -80.06463 | 36035 ft | 413 kts | 196° |
| 2026-05-07 13:19 | 40.88325 | -80.06501 | 36046 ft | 412 kts | 197° |
| 2026-05-07 13:20 | 40.82610 | -80.06545 | 36042 ft | 410 kts | 197° |
| 2026-05-07 13:20 | 40.76909 | -80.06587 | 36045 ft | 410 kts | 197° |
| 2026-05-07 13:21 | 40.71209 | -80.06629 | 36046 ft | 408 kts | 197° |
| 2026-05-07 13:21 | 40.65534 | -80.06671 | 36038 ft | 407 kts | 197° |
| 2026-05-07 13:22 | 40.59912 | -80.06709 | 36036 ft | 406 kts | 198° |
| 2026-05-07 13:22 | 40.54274 | -80.06750 | 36034 ft | 405 kts | 198° |
| 2026-05-07 13:23 | 40.48641 | -80.06791 | 36035 ft | 404 kts | 198° |
| 2026-05-07 13:23 | 40.43020 | -80.06823 | 36033 ft | 404 kts | 198° |
| 2026-05-07 13:24 | 40.37403 | -80.06858 | 36033 ft | 404 kts | 198° |
| 2026-05-07 13:24 | 40.31787 | -80.06901 | 36034 ft | 403 kts | 198° |
| 2026-05-07 13:25 | 40.26224 | -80.06948 | 36036 ft | 402 kts | 198° |
| 2026-05-07 13:25 | 40.20620 | -80.06989 | 36043 ft | 403 kts | 198° |
| 2026-05-07 13:26 | 40.15022 | -80.07025 | 36041 ft | 402 kts | 198° |
| 2026-05-07 13:26 | 40.09432 | -80.07068 | 36053 ft | 402 kts | 198° |
| 2026-05-07 13:27 | 40.03841 | -80.07104 | 36051 ft | 401 kts | 198° |
| 2026-05-07 13:27 | 39.98253 | -80.07148 | 36050 ft | 401 kts | 198° |
| 2026-05-07 13:28 | 39.92708 | -80.07186 | 36056 ft | 401 kts | 198° |
| 2026-05-07 13:28 | 39.87124 | -80.07213 | 36051 ft | 401 kts | 198° |
| 2026-05-07 13:29 | 39.81540 | -80.07252 | 36055 ft | 401 kts | 198° |
| 2026-05-07 13:29 | 39.75959 | -80.07298 | 36055 ft | 401 kts | 198° |
| 2026-05-07 13:30 | 39.70375 | -80.07338 | 36049 ft | 401 kts | 198° |
| 2026-05-07 13:30 | 39.64799 | -80.07375 | 36053 ft | 401 kts | 198° |
| 2026-05-07 13:31 | 39.59222 | -80.07410 | 36047 ft | 401 kts | 198° |
| 2026-05-07 13:31 | 39.53670 | -80.07440 | 36052 ft | 401 kts | 198° |
| 2026-05-07 13:32 | 39.48094 | -80.07489 | 36041 ft | 400 kts | 199° |
| 2026-05-07 13:32 | 39.42521 | -80.07590 | 36042 ft | 400 kts | 199° |
| 2026-05-07 13:33 | 39.36947 | -80.07692 | 36038 ft | 401 kts | 198° |
| 2026-05-07 13:33 | 39.31368 | -80.07780 | 36039 ft | 401 kts | 198° |
| 2026-05-07 13:34 | 39.23018 | -80.07905 | 36041 ft | 401 kts | 198° |
| 2026-05-07 13:35 | 39.17432 | -80.07988 | 36039 ft | 401 kts | 198° |
| 2026-05-07 13:35 | 39.11846 | -80.08072 | 36036 ft | 402 kts | 198° |
| 2026-05-07 13:36 | 39.06247 | -80.08155 | 36036 ft | 402 kts | 198° |
| 2026-05-07 13:36 | 39.00646 | -80.08246 | 36037 ft | 402 kts | 198° |
| 2026-05-07 13:37 | 38.95045 | -80.08336 | 36036 ft | 403 kts | 198° |
| 2026-05-07 13:37 | 38.92283 | -80.08524 | 36037 ft | 389 kts | 205° |
| 2026-05-07 13:37 | 38.89692 | -80.09195 | 36036 ft | 373 kts | 211° |
| 2026-05-07 13:38 | 38.84728 | -80.10963 | 36034 ft | 373 kts | 211° |
| 2026-05-07 13:38 | 38.79689 | -80.12739 | 36034 ft | 373 kts | 211° |
| 2026-05-07 13:39 | 38.74708 | -80.14492 | 36045 ft | 374 kts | 211° |
| 2026-05-07 13:39 | 38.69679 | -80.16245 | 36037 ft | 374 kts | 211° |
| 2026-05-07 13:40 | 38.64642 | -80.17997 | 36034 ft | 374 kts | 211° |
| 2026-05-07 13:40 | 38.59608 | -80.19750 | 36032 ft | 375 kts | 211° |
| 2026-05-07 13:41 | 38.54587 | -80.21510 | 36031 ft | 375 kts | 211° |
| 2026-05-07 13:41 | 38.49545 | -80.23272 | 36031 ft | 375 kts | 211° |
| 2026-05-07 13:42 | 38.44507 | -80.25021 | 36030 ft | 376 kts | 211° |
| 2026-05-07 13:42 | 38.39465 | -80.26768 | 36028 ft | 375 kts | 211° |
| 2026-05-07 13:43 | 38.34419 | -80.28524 | 36027 ft | 376 kts | 211° |
| 2026-05-07 13:43 | 38.29357 | -80.30267 | 36030 ft | 376 kts | 211° |
| 2026-05-07 13:44 | 38.24302 | -80.32011 | 36028 ft | 376 kts | 211° |
| 2026-05-07 13:44 | 38.19261 | -80.33762 | 36027 ft | 376 kts | 211° |
| 2026-05-07 13:45 | 38.14243 | -80.35486 | 36021 ft | 376 kts | 211° |
| 2026-05-07 13:45 | 38.09195 | -80.37224 | 36017 ft | 376 kts | 211° |
| 2026-05-07 13:46 | 38.04143 | -80.38959 | 36021 ft | 376 kts | 211° |
| 2026-05-07 13:46 | 37.99082 | -80.40694 | 36027 ft | 377 kts | 211° |
| 2026-05-07 13:47 | 37.94046 | -80.42423 | 36024 ft | 377 kts | 210° |
| 2026-05-07 13:47 | 37.88975 | -80.44158 | 36023 ft | 377 kts | 210° |
| 2026-05-07 13:48 | 37.83895 | -80.45896 | 36029 ft | 378 kts | 210° |
| 2026-05-07 13:48 | 37.78820 | -80.47633 | 36029 ft | 378 kts | 210° |
| 2026-05-07 13:49 | 37.73739 | -80.49369 | 36030 ft | 378 kts | 210° |
| 2026-05-07 13:49 | 37.68654 | -80.51091 | 36038 ft | 378 kts | 210° |
| 2026-05-07 13:50 | 37.63566 | -80.52817 | 36034 ft | 378 kts | 210° |
| 2026-05-07 13:50 | 37.58525 | -80.54534 | 36034 ft | 378 kts | 210° |
| 2026-05-07 13:51 | 37.53452 | -80.56259 | 36030 ft | 378 kts | 210° |
| 2026-05-07 13:51 | 37.48368 | -80.57976 | 36024 ft | 378 kts | 210° |
| 2026-05-07 13:52 | 37.43278 | -80.59691 | 36018 ft | 378 kts | 210° |
| 2026-05-07 13:52 | 37.38188 | -80.61408 | 36014 ft | 379 kts | 210° |
| 2026-05-07 13:53 | 37.33086 | -80.63127 | 36011 ft | 380 kts | 210° |
| 2026-05-07 13:53 | 37.28010 | -80.64829 | 36012 ft | 379 kts | 209° |
| 2026-05-07 13:54 | 37.22914 | -80.66549 | 36008 ft | 379 kts | 209° |
| 2026-05-07 13:54 | 37.17812 | -80.68267 | 36004 ft | 380 kts | 209° |
| 2026-05-07 13:55 | 37.12695 | -80.69975 | 36003 ft | 381 kts | 209° |
| 2026-05-07 13:55 | 37.07420 | -80.71259 | 35997 ft | 403 kts | 197° |
| 2026-05-07 13:56 | 37.01731 | -80.71154 | 35993 ft | 410 kts | 194° |
| 2026-05-07 13:56 | 36.96032 | -80.70993 | 35995 ft | 410 kts | 194° |
| 2026-05-07 13:57 | 36.90328 | -80.70849 | 35991 ft | 409 kts | 194° |
| 2026-05-07 13:57 | 36.84630 | -80.70717 | 35985 ft | 409 kts | 194° |
| 2026-05-07 13:58 | 36.78973 | -80.70587 | 35980 ft | 409 kts | 194° |
| 2026-05-07 13:58 | 36.73278 | -80.70455 | 35971 ft | 409 kts | 194° |
| 2026-05-07 13:59 | 36.67575 | -80.70328 | 35970 ft | 410 kts | 194° |
| 2026-05-07 13:59 | 36.62825 | -80.70212 | 35964 ft | 410 kts | 194° |
| 2026-05-07 14:00 | 36.57108 | -80.70067 | 35962 ft | 411 kts | 194° |
| 2026-05-07 14:00 | 36.51392 | -80.69941 | 35957 ft | 411 kts | 194° |
| 2026-05-07 14:01 | 36.45702 | -80.69821 | 35959 ft | 411 kts | 194° |
| 2026-05-07 14:01 | 36.39966 | -80.69690 | 35959 ft | 411 kts | 193° |
| 2026-05-07 14:02 | 36.34235 | -80.69554 | 35957 ft | 411 kts | 193° |
| 2026-05-07 14:02 | 36.28547 | -80.69420 | 35957 ft | 411 kts | 193° |
| 2026-05-07 14:03 | 36.22832 | -80.69292 | 35953 ft | 411 kts | 193° |
| 2026-05-07 14:03 | 36.17110 | -80.69160 | 35953 ft | 411 kts | 193° |
| 2026-05-07 14:04 | 36.11382 | -80.69025 | 35946 ft | 412 kts | 193° |
| 2026-05-07 14:04 | 36.05653 | -80.68892 | 35944 ft | 412 kts | 193° |
| 2026-05-07 14:05 | 35.99918 | -80.68759 | 35945 ft | 412 kts | 193° |
| 2026-05-07 14:05 | 35.94167 | -80.68626 | 35931 ft | 413 kts | 192° |
| 2026-05-07 14:06 | 35.88451 | -80.68498 | 35915 ft | 414 kts | 192° |
| 2026-05-07 14:06 | 35.82677 | -80.68371 | 35912 ft | 415 kts | 192° |
| 2026-05-07 14:07 | 35.76887 | -80.68243 | 35915 ft | 416 kts | 192° |
| 2026-05-07 14:07 | 35.71083 | -80.68106 | 35915 ft | 417 kts | 192° |
| 2026-05-07 14:08 | 35.65277 | -80.67974 | 35915 ft | 417 kts | 192° |
| 2026-05-07 14:08 | 35.59475 | -80.67841 | 35913 ft | 417 kts | 192° |
| 2026-05-07 14:09 | 35.53708 | -80.67708 | 35915 ft | 417 kts | 192° |
| 2026-05-07 14:09 | 35.47901 | -80.67576 | 35917 ft | 418 kts | 192° |
| 2026-05-07 14:10 | 35.42074 | -80.67448 | 35918 ft | 419 kts | 192° |
| 2026-05-07 14:10 | 35.36245 | -80.67316 | 35923 ft | 420 kts | 192° |
| 2026-05-07 14:11 | 35.30399 | -80.67180 | 35926 ft | 420 kts | 191° |
| 2026-05-07 14:11 | 35.24583 | -80.67054 | 35927 ft | 421 kts | 191° |
| 2026-05-07 14:12 | 35.18721 | -80.66923 | 35923 ft | 422 kts | 191° |
| 2026-05-07 14:12 | 35.12851 | -80.66788 | 35921 ft | 422 kts | 191° |
| 2026-05-07 14:13 | 35.06976 | -80.66658 | 35914 ft | 423 kts | 191° |
| 2026-05-07 14:13 | 35.01085 | -80.66530 | 35910 ft | 424 kts | 191° |
| 2026-05-07 14:14 | 34.95178 | -80.66398 | 35905 ft | 425 kts | 191° |
| 2026-05-07 14:14 | 34.89295 | -80.66263 | 35904 ft | 426 kts | 190° |
| 2026-05-07 14:15 | 34.83356 | -80.66130 | 35904 ft | 427 kts | 190° |
| 2026-05-07 14:15 | 34.77408 | -80.65997 | 35904 ft | 428 kts | 190° |
| 2026-05-07 14:16 | 34.71441 | -80.65867 | 35908 ft | 429 kts | 190° |
| 2026-05-07 14:16 | 34.68505 | -80.66077 | 35909 ft | 417 kts | 199° |
| 2026-05-07 14:16 | 34.65726 | -80.66862 | 35910 ft | 404 kts | 208° |
| 2026-05-07 14:17 | 34.60867 | -80.69901 | 35908 ft | 386 kts | 224° |
| 2026-05-07 14:17 | 34.56856 | -80.74152 | 35910 ft | 383 kts | 228° |
| 2026-05-07 14:18 | 34.52877 | -80.78464 | 35912 ft | 384 kts | 228° |
| 2026-05-07 14:18 | 34.48880 | -80.82777 | 35917 ft | 385 kts | 227° |
| 2026-05-07 14:19 | 34.44879 | -80.87092 | 35921 ft | 385 kts | 228° |
| 2026-05-07 14:19 | 34.40885 | -80.91408 | 35925 ft | 385 kts | 228° |
| 2026-05-07 14:20 | 34.36889 | -80.95719 | 35930 ft | 385 kts | 228° |
| 2026-05-07 14:20 | 34.32901 | -80.99987 | 35933 ft | 387 kts | 225° |
| 2026-05-07 14:21 | 34.28043 | -81.03102 | 35934 ft | 407 kts | 207° |
| 2026-05-07 14:21 | 34.22631 | -81.05165 | 35930 ft | 408 kts | 207° |
| 2026-05-07 14:22 | 34.17211 | -81.07249 | 35929 ft | 409 kts | 207° |
| 2026-05-07 14:22 | 34.11800 | -81.09339 | 35929 ft | 408 kts | 207° |
| 2026-05-07 14:23 | 34.06378 | -81.11422 | 35928 ft | 409 kts | 207° |
| 2026-05-07 14:23 | 34.00953 | -81.13497 | 35922 ft | 409 kts | 207° |
| 2026-05-07 14:24 | 33.95516 | -81.15573 | 35904 ft | 411 kts | 206° |
| 2026-05-07 14:24 | 33.90056 | -81.17664 | 35890 ft | 414 kts | 206° |
| 2026-05-07 14:25 | 33.84550 | -81.19769 | 35890 ft | 416 kts | 206° |
| 2026-05-07 14:25 | 33.79015 | -81.21881 | 35891 ft | 418 kts | 206° |
| 2026-05-07 14:26 | 33.73500 | -81.23980 | 35897 ft | 419 kts | 206° |
| 2026-05-07 14:26 | 33.67942 | -81.26097 | 35899 ft | 419 kts | 206° |
| 2026-05-07 14:27 | 33.62375 | -81.28205 | 35904 ft | 420 kts | 206° |
| 2026-05-07 14:27 | 33.56805 | -81.30315 | 35909 ft | 420 kts | 206° |
| 2026-05-07 14:28 | 33.51231 | -81.32431 | 35918 ft | 420 kts | 206° |
| 2026-05-07 14:28 | 33.45654 | -81.34541 | 35925 ft | 420 kts | 206° |
| 2026-05-07 14:29 | 33.40069 | -81.36644 | 35933 ft | 421 kts | 206° |
| 2026-05-07 14:29 | 33.34480 | -81.38746 | 35941 ft | 421 kts | 206° |
| 2026-05-07 14:30 | 33.28928 | -81.40836 | 35950 ft | 422 kts | 206° |
| 2026-05-07 14:30 | 33.23370 | -81.43050 | 35957 ft | 420 kts | 208° |
| 2026-05-07 14:31 | 33.17892 | -81.45454 | 35967 ft | 420 kts | 208° |
| 2026-05-07 14:31 | 33.12411 | -81.47878 | 35967 ft | 420 kts | 208° |
| 2026-05-07 14:32 | 33.06900 | -81.50255 | 35961 ft | 421 kts | 208° |
| 2026-05-07 14:32 | 33.01376 | -81.52598 | 35958 ft | 422 kts | 208° |
| 2026-05-07 14:33 | 32.95834 | -81.54945 | 35957 ft | 423 kts | 208° |
| 2026-05-07 14:33 | 32.90275 | -81.57316 | 35951 ft | 424 kts | 208° |
| 2026-05-07 14:34 | 32.84757 | -81.59778 | 35953 ft | 423 kts | 209° |
| 2026-05-07 14:34 | 32.79265 | -81.62307 | 35950 ft | 424 kts | 209° |
| 2026-05-07 14:35 | 32.73752 | -81.64831 | 35950 ft | 425 kts | 209° |
| 2026-05-07 14:35 | 32.68212 | -81.67326 | 35954 ft | 426 kts | 209° |
| 2026-05-07 14:36 | 32.62700 | -81.69806 | 35959 ft | 427 kts | 209° |
| 2026-05-07 14:36 | 32.57137 | -81.72304 | 35954 ft | 428 kts | 209° |
| 2026-05-07 14:37 | 32.51559 | -81.74816 | 35952 ft | 429 kts | 209° |
| 2026-05-07 14:37 | 32.43166 | -81.78590 | 35945 ft | 431 kts | 209° |
| 2026-05-07 14:38 | 32.37546 | -81.81100 | 35950 ft | 432 kts | 209° |
| 2026-05-07 14:38 | 32.31919 | -81.83617 | 35956 ft | 432 kts | 209° |
| 2026-05-07 14:39 | 32.26292 | -81.86138 | 35961 ft | 433 kts | 209° |
| 2026-05-07 14:39 | 32.20651 | -81.88653 | 35966 ft | 434 kts | 208° |
| 2026-05-07 14:40 | 32.14994 | -81.91168 | 35972 ft | 434 kts | 208° |
| 2026-05-07 14:40 | 32.09261 | -81.93504 | 35974 ft | 438 kts | 206° |
| 2026-05-07 14:41 | 32.03417 | -81.95620 | 35976 ft | 439 kts | 205° |
| 2026-05-07 14:41 | 31.97572 | -81.97719 | 35981 ft | 439 kts | 205° |
| 2026-05-07 14:42 | 31.91784 | -81.99859 | 35994 ft | 439 kts | 206° |
| 2026-05-07 14:42 | 31.85973 | -82.02045 | 36003 ft | 439 kts | 206° |
| 2026-05-07 14:43 | 31.80136 | -82.04192 | 36004 ft | 440 kts | 205° |
| 2026-05-07 14:43 | 31.74281 | -82.06299 | 36015 ft | 439 kts | 205° |
| 2026-05-07 14:44 | 31.68432 | -82.08410 | 36021 ft | 439 kts | 205° |
| 2026-05-07 14:44 | 31.62595 | -82.10528 | 36027 ft | 439 kts | 205° |
| 2026-05-07 14:45 | 31.56787 | -82.12636 | 36035 ft | 440 kts | 205° |
| 2026-05-07 14:45 | 31.50943 | -82.14749 | 36043 ft | 439 kts | 205° |
| 2026-05-07 14:46 | 31.45091 | -82.16864 | 36061 ft | 440 kts | 205° |
| 2026-05-07 14:46 | 31.39236 | -82.18969 | 36069 ft | 440 kts | 205° |
| 2026-05-07 14:47 | 31.33389 | -82.21074 | 36077 ft | 440 kts | 205° |
| 2026-05-07 14:47 | 31.27534 | -82.23172 | 36088 ft | 440 kts | 205° |
| 2026-05-07 14:48 | 31.21680 | -82.25272 | 36089 ft | 440 kts | 205° |
| 2026-05-07 14:48 | 31.15864 | -82.27361 | 36096 ft | 440 kts | 205° |
| 2026-05-07 14:49 | 31.12934 | -82.28411 | 36223 ft | 440 kts | 205° |
| 2026-05-07 14:49 | 31.10009 | -82.29457 | 36624 ft | 438 kts | 205° |
| 2026-05-07 14:49 | 31.07104 | -82.30490 | 36994 ft | 436 kts | 205° |
| 2026-05-07 14:49 | 31.04216 | -82.31519 | 37418 ft | 432 kts | 205° |
| 2026-05-07 14:50 | 31.01350 | -82.32542 | 37831 ft | 428 kts | 206° |
| 2026-05-07 14:50 | 30.98500 | -82.33563 | 38063 ft | 428 kts | 206° |
| 2026-05-07 14:50 | 30.92807 | -82.35602 | 38100 ft | 428 kts | 206° |
| 2026-05-07 14:51 | 30.88069 | -82.37292 | 38089 ft | 428 kts | 206° |
| 2026-05-07 14:51 | 30.82367 | -82.39319 | 38089 ft | 428 kts | 206° |
| 2026-05-07 14:52 | 30.76659 | -82.41348 | 38093 ft | 429 kts | 206° |
| 2026-05-07 14:52 | 30.70948 | -82.43399 | 38103 ft | 427 kts | 209° |
| 2026-05-07 14:53 | 30.65619 | -82.46233 | 38099 ft | 420 kts | 214° |
| 2026-05-07 14:53 | 30.60354 | -82.49191 | 38102 ft | 421 kts | 214° |
| 2026-05-07 14:54 | 30.55067 | -82.52158 | 38100 ft | 422 kts | 214° |
| 2026-05-07 14:54 | 30.49773 | -82.55117 | 38093 ft | 422 kts | 214° |
| 2026-05-07 14:55 | 30.44474 | -82.58080 | 38100 ft | 423 kts | 214° |
| 2026-05-07 14:55 | 30.39168 | -82.61044 | 38096 ft | 424 kts | 214° |
| 2026-05-07 14:56 | 30.33861 | -82.64005 | 38098 ft | 423 kts | 214° |
| 2026-05-07 14:56 | 30.28554 | -82.66961 | 38098 ft | 424 kts | 214° |
| 2026-05-07 14:57 | 30.23235 | -82.69914 | 38096 ft | 424 kts | 214° |
| 2026-05-07 14:57 | 30.17944 | -82.72848 | 38094 ft | 424 kts | 214° |
| 2026-05-07 14:58 | 30.12622 | -82.75806 | 38096 ft | 424 kts | 214° |
| 2026-05-07 14:58 | 30.07296 | -82.78759 | 38102 ft | 425 kts | 214° |
| 2026-05-07 14:59 | 30.01966 | -82.81710 | 38102 ft | 425 kts | 214° |
| 2026-05-07 14:59 | 29.96628 | -82.84659 | 38095 ft | 425 kts | 213° |
| 2026-05-07 15:00 | 29.91319 | -82.87591 | 38087 ft | 426 kts | 213° |
| 2026-05-07 15:00 | 29.85957 | -82.90544 | 38089 ft | 427 kts | 213° |
| 2026-05-07 15:01 | 29.80591 | -82.93503 | 38088 ft | 428 kts | 213° |
| 2026-05-07 15:01 | 29.75225 | -82.96468 | 38089 ft | 428 kts | 213° |
| 2026-05-07 15:02 | 29.69852 | -82.99424 | 38086 ft | 428 kts | 213° |
| 2026-05-07 15:02 | 29.64471 | -83.02376 | 38086 ft | 428 kts | 213° |
| 2026-05-07 15:03 | 29.59006 | -83.05041 | 38081 ft | 438 kts | 203° |
| 2026-05-07 15:03 | 29.52987 | -83.06527 | 38078 ft | 442 kts | 199° |
| 2026-05-07 15:04 | 29.46956 | -83.07948 | 38078 ft | 443 kts | 199° |
| 2026-05-07 15:04 | 29.40917 | -83.09379 | 38079 ft | 443 kts | 199° |
| 2026-05-07 15:05 | 29.34922 | -83.10808 | 38083 ft | 443 kts | 199° |
| 2026-05-07 15:05 | 29.28889 | -83.12246 | 38082 ft | 443 kts | 199° |
| 2026-05-07 15:06 | 29.22846 | -83.13667 | 38082 ft | 444 kts | 199° |
| 2026-05-07 15:06 | 29.16797 | -83.15095 | 38087 ft | 444 kts | 199° |
| 2026-05-07 15:07 | 29.10749 | -83.16521 | 38093 ft | 444 kts | 199° |
| 2026-05-07 15:07 | 29.04702 | -83.17941 | 38095 ft | 444 kts | 199° |
| 2026-05-07 15:08 | 28.98639 | -83.19367 | 38087 ft | 444 kts | 199° |
| 2026-05-07 15:08 | 28.92579 | -83.20794 | 38091 ft | 445 kts | 199° |
| 2026-05-07 15:09 | 28.86520 | -83.22223 | 38089 ft | 445 kts | 199° |
| 2026-05-07 15:09 | 28.80492 | -83.23634 | 38097 ft | 445 kts | 199° |
| 2026-05-07 15:10 | 28.74420 | -83.25048 | 38098 ft | 445 kts | 199° |
| 2026-05-07 15:10 | 28.68345 | -83.26463 | 38099 ft | 445 kts | 198° |
| 2026-05-07 15:11 | 28.62272 | -83.27890 | 38097 ft | 445 kts | 199° |
| 2026-05-07 15:11 | 28.56188 | -83.29317 | 38104 ft | 446 kts | 198° |
| 2026-05-07 15:12 | 28.50106 | -83.30733 | 38100 ft | 446 kts | 198° |
| 2026-05-07 15:12 | 28.44068 | -83.32143 | 38107 ft | 446 kts | 198° |
| 2026-05-07 15:13 | 28.37990 | -83.33559 | 38110 ft | 446 kts | 198° |
| 2026-05-07 15:13 | 28.31905 | -83.34962 | 38113 ft | 446 kts | 198° |
| 2026-05-07 15:14 | 28.25820 | -83.36370 | 38122 ft | 445 kts | 198° |
| 2026-05-07 15:14 | 28.19762 | -83.37782 | 38135 ft | 443 kts | 198° |
| 2026-05-07 15:15 | 28.13756 | -83.39172 | 38133 ft | 442 kts | 198° |
| 2026-05-07 15:15 | 28.07734 | -83.40579 | 38131 ft | 440 kts | 201° |
| 2026-05-07 15:16 | 28.02308 | -83.43352 | 38127 ft | 420 kts | 222° |
| 2026-05-07 15:16 | 27.98329 | -83.47996 | 38120 ft | 407 kts | 241° |
| 2026-05-07 15:17 | 27.95899 | -83.53707 | 38112 ft | 402 kts | 251° |
| 2026-05-07 15:17 | 27.93749 | -83.59563 | 38112 ft | 404 kts | 250° |
| 2026-05-07 15:18 | 27.91586 | -83.65420 | 38116 ft | 404 kts | 250° |
| 2026-05-07 15:18 | 27.89434 | -83.71244 | 38118 ft | 404 kts | 250° |
| 2026-05-07 15:19 | 27.87268 | -83.77104 | 38115 ft | 404 kts | 250° |
| 2026-05-07 15:19 | 27.85100 | -83.82955 | 38117 ft | 403 kts | 250° |
| 2026-05-07 15:20 | 27.82933 | -83.88810 | 38115 ft | 403 kts | 250° |
| 2026-05-07 15:20 | 27.80769 | -83.94656 | 38117 ft | 403 kts | 250° |
| 2026-05-07 15:21 | 27.78595 | -84.00493 | 38116 ft | 403 kts | 250° |
| 2026-05-07 15:21 | 27.76435 | -84.06293 | 38115 ft | 403 kts | 250° |
| 2026-05-07 15:22 | 27.74258 | -84.12129 | 38119 ft | 403 kts | 250° |
| 2026-05-07 15:22 | 27.72087 | -84.17959 | 38116 ft | 403 kts | 250° |
| 2026-05-07 15:23 | 27.69905 | -84.23798 | 38118 ft | 404 kts | 250° |
| 2026-05-07 15:23 | 27.67723 | -84.29631 | 38116 ft | 404 kts | 250° |
| 2026-05-07 15:24 | 27.65552 | -84.35424 | 38111 ft | 404 kts | 250° |
| 2026-05-07 15:24 | 27.63356 | -84.41259 | 38110 ft | 404 kts | 250° |
| 2026-05-07 15:25 | 27.61160 | -84.47097 | 38105 ft | 404 kts | 250° |
| 2026-05-07 15:25 | 27.58963 | -84.52940 | 38106 ft | 404 kts | 250° |
| 2026-05-07 15:26 | 27.56773 | -84.58739 | 38105 ft | 405 kts | 250° |
| 2026-05-07 15:26 | 27.54566 | -84.64582 | 38105 ft | 405 kts | 250° |
| 2026-05-07 15:27 | 27.52341 | -84.70431 | 38104 ft | 406 kts | 250° |
| 2026-05-07 15:27 | 27.49561 | -84.75968 | 38103 ft | 413 kts | 233° |
| 2026-05-07 15:28 | 27.47486 | -84.78231 | 38104 ft | 419 kts | 222° |
| 2026-05-07 15:28 | 27.45003 | -84.80009 | 38098 ft | 427 kts | 211° |
| 2026-05-07 15:28 | 27.39389 | -84.82434 | 38098 ft | 434 kts | 206° |
| 2026-05-07 15:29 | 27.33754 | -84.84752 | 38099 ft | 434 kts | 206° |
| 2026-05-07 15:29 | 27.28078 | -84.87090 | 38101 ft | 434 kts | 206° |
| 2026-05-07 15:30 | 27.22390 | -84.89426 | 38104 ft | 435 kts | 206° |
| 2026-05-07 15:30 | 27.16701 | -84.91766 | 38107 ft | 435 kts | 206° |
| 2026-05-07 15:31 | 27.11011 | -84.94112 | 38107 ft | 435 kts | 206° |
| 2026-05-07 15:31 | 27.05319 | -84.96450 | 38108 ft | 436 kts | 205° |
| 2026-05-07 15:32 | 26.99615 | -84.98774 | 38108 ft | 436 kts | 205° |
| 2026-05-07 15:32 | 26.93903 | -85.01116 | 38110 ft | 437 kts | 206° |
| 2026-05-07 15:33 | 26.88189 | -85.03453 | 38108 ft | 437 kts | 205° |
| 2026-05-07 15:33 | 26.82479 | -85.05780 | 38104 ft | 437 kts | 205° |
| 2026-05-07 15:34 | 26.76795 | -85.08100 | 38102 ft | 437 kts | 205° |
| 2026-05-07 15:34 | 26.71081 | -85.10425 | 38099 ft | 437 kts | 205° |
| 2026-05-07 15:35 | 26.65361 | -85.12748 | 38103 ft | 437 kts | 205° |
| 2026-05-07 15:35 | 26.59647 | -85.15075 | 38100 ft | 437 kts | 205° |
| 2026-05-07 15:36 | 26.53928 | -85.17397 | 38097 ft | 437 kts | 205° |
| 2026-05-07 15:36 | 26.48241 | -85.19700 | 38095 ft | 437 kts | 205° |
| 2026-05-07 15:37 | 26.42513 | -85.22018 | 38098 ft | 437 kts | 205° |
| 2026-05-07 15:37 | 26.36634 | -85.23897 | 38097 ft | 446 kts | 192° |
| 2026-05-07 15:38 | 26.30426 | -85.24565 | 38097 ft | 448 kts | 190° |
| 2026-05-07 15:38 | 26.24210 | -85.25207 | 38103 ft | 449 kts | 191° |
| 2026-05-07 15:39 | 26.18035 | -85.25847 | 38105 ft | 449 kts | 190° |
| 2026-05-07 15:39 | 26.11816 | -85.26487 | 38107 ft | 449 kts | 191° |
| 2026-05-07 15:40 | 26.05595 | -85.27131 | 38105 ft | 448 kts | 191° |
| 2026-05-07 15:40 | 25.99381 | -85.27773 | 38103 ft | 449 kts | 191° |
| 2026-05-07 15:41 | 25.93165 | -85.28420 | 38098 ft | 449 kts | 190° |
| 2026-05-07 15:41 | 25.86947 | -85.29061 | 38097 ft | 449 kts | 190° |
| 2026-05-07 15:42 | 25.80722 | -85.29703 | 38096 ft | 449 kts | 190° |
| 2026-05-07 15:42 | 25.74483 | -85.30352 | 38100 ft | 450 kts | 190° |
| 2026-05-07 15:43 | 25.68294 | -85.30992 | 38102 ft | 450 kts | 190° |
| 2026-05-07 15:43 | 25.62051 | -85.31629 | 38099 ft | 450 kts | 190° |
| 2026-05-07 15:44 | 25.55808 | -85.32263 | 38102 ft | 450 kts | 190° |
| 2026-05-07 15:44 | 25.49567 | -85.32912 | 38100 ft | 450 kts | 190° |
| 2026-05-07 15:45 | 25.44373 | -85.33449 | 38100 ft | 450 kts | 190° |
| 2026-05-07 15:45 | 25.38131 | -85.34083 | 38100 ft | 450 kts | 191° |
| 2026-05-07 15:46 | 25.31296 | -85.36306 | 38098 ft | 436 kts | 212° |
| 2026-05-07 15:46 | 25.29509 | -85.37406 | 38095 ft | 435 kts | 214° |
| 2026-05-07 15:47 | 25.24263 | -85.40747 | 38096 ft | 435 kts | 214° |
| 2026-05-07 15:47 | 25.19037 | -85.44047 | 38087 ft | 436 kts | 213° |
| 2026-05-07 15:48 | 25.13767 | -85.47358 | 38087 ft | 436 kts | 213° |
| 2026-05-07 15:48 | 25.08009 | -85.49657 | 38086 ft | 446 kts | 193° |
| 2026-05-07 15:49 | 25.01753 | -85.49965 | 38079 ft | 452 kts | 184° |
| 2026-05-07 15:49 | 24.95494 | -85.49959 | 38079 ft | 453 kts | 184° |
| 2026-05-07 15:50 | 24.89187 | -85.49972 | 38082 ft | 454 kts | 184° |
| 2026-05-07 15:50 | 24.82869 | -85.49977 | 38090 ft | 454 kts | 184° |
| 2026-05-07 15:51 | 24.76551 | -85.49975 | 38089 ft | 454 kts | 184° |
| 2026-05-07 15:51 | 24.70229 | -85.49975 | 38092 ft | 454 kts | 184° |
| 2026-05-07 15:52 | 24.63906 | -85.49980 | 38093 ft | 455 kts | 184° |
| 2026-05-07 15:52 | 24.57618 | -85.49980 | 38097 ft | 455 kts | 184° |
| 2026-05-07 15:53 | 24.51285 | -85.49987 | 38097 ft | 455 kts | 184° |
| 2026-05-07 15:53 | 24.44946 | -85.49991 | 38102 ft | 456 kts | 184° |
| 2026-05-07 15:54 | 24.38601 | -85.49988 | 38105 ft | 456 kts | 183° |
| 2026-05-07 15:54 | 24.32261 | -85.49979 | 38108 ft | 455 kts | 183° |
| 2026-05-07 15:55 | 24.25924 | -85.49983 | 38107 ft | 455 kts | 184° |
| 2026-05-07 15:55 | 24.19629 | -85.49992 | 38108 ft | 455 kts | 184° |
| 2026-05-07 15:56 | 24.13297 | -85.49993 | 38106 ft | 455 kts | 183° |
| 2026-05-07 15:56 | 24.06963 | -85.49997 | 38102 ft | 455 kts | 183° |
| 2026-05-07 15:57 | 24.00621 | -85.49998 | 38100 ft | 455 kts | 183° |
| 2026-05-07 15:57 | 23.94292 | -85.50155 | 38104 ft | 454 kts | 186° |
| 2026-05-07 15:58 | 23.87988 | -85.50527 | 38099 ft | 453 kts | 186° |
| 2026-05-07 15:58 | 23.81726 | -85.50900 | 38098 ft | 454 kts | 186° |
| 2026-05-07 15:59 | 23.75413 | -85.51210 | 38098 ft | 454 kts | 186° |
| 2026-05-07 15:59 | 23.69086 | -85.51489 | 38097 ft | 455 kts | 185° |
| 2026-05-07 16:00 | 23.62765 | -85.51786 | 38097 ft | 454 kts | 186° |
| 2026-05-07 16:00 | 23.56449 | -85.52096 | 38097 ft | 455 kts | 186° |
| 2026-05-07 16:01 | 23.50122 | -85.52405 | 38101 ft | 455 kts | 186° |
| 2026-05-07 16:01 | 23.43835 | -85.52710 | 38099 ft | 455 kts | 186° |
| 2026-05-07 16:02 | 23.37506 | -85.53014 | 38097 ft | 455 kts | 186° |
| 2026-05-07 16:02 | 23.31173 | -85.53311 | 38100 ft | 455 kts | 185° |
| 2026-05-07 16:03 | 23.24851 | -85.53610 | 38101 ft | 455 kts | 185° |
| 2026-05-07 16:03 | 23.18518 | -85.53912 | 38097 ft | 455 kts | 185° |
| 2026-05-07 16:04 | 23.12234 | -85.54218 | 38096 ft | 455 kts | 185° |
| 2026-05-07 16:04 | 23.05911 | -85.54529 | 38099 ft | 455 kts | 186° |
| 2026-05-07 16:05 | 22.99589 | -85.54839 | 38095 ft | 455 kts | 185° |
| 2026-05-07 16:05 | 22.93260 | -85.55122 | 38092 ft | 455 kts | 185° |
| 2026-05-07 16:06 | 22.86934 | -85.55420 | 38095 ft | 455 kts | 185° |
| 2026-05-07 16:06 | 22.80648 | -85.55727 | 38086 ft | 455 kts | 185° |
| 2026-05-07 16:07 | 22.74324 | -85.56033 | 38085 ft | 455 kts | 185° |
| 2026-05-07 16:07 | 22.67996 | -85.56339 | 38091 ft | 455 kts | 185° |
| 2026-05-07 16:08 | 22.61673 | -85.56643 | 38083 ft | 454 kts | 185° |
| 2026-05-07 16:08 | 22.55353 | -85.56944 | 38079 ft | 454 kts | 185° |
| 2026-05-07 16:09 | 22.49034 | -85.57248 | 38076 ft | 454 kts | 185° |
| 2026-05-07 16:09 | 22.42761 | -85.57550 | 38075 ft | 454 kts | 185° |
| 2026-05-07 16:10 | 22.36444 | -85.57854 | 37360 ft | 459 kts | 185° |
| 2026-05-07 16:10 | 22.33231 | -85.58007 | 36524 ft | 464 kts | 185° |
| 2026-05-07 16:10 | 22.30025 | -85.58320 | 35792 ft | 462 kts | 193° |
| 2026-05-07 16:10 | 22.26932 | -85.59233 | 34970 ft | 462 kts | 203° |
| 2026-05-07 16:11 | 22.24042 | -85.60759 | 34047 ft | 463 kts | 214° |
| 2026-05-07 16:11 | 22.21469 | -85.62858 | 33133 ft | 464 kts | 225° |
| 2026-05-07 16:11 | 22.19304 | -85.65444 | 32197 ft | 465 kts | 234° |
| 2026-05-07 16:11 | 22.17355 | -85.68250 | 31180 ft | 470 kts | 234° |
| 2026-05-07 16:12 | 22.15379 | -85.71075 | 30121 ft | 474 kts | 233° |
| 2026-05-07 16:12 | 22.13377 | -85.73928 | 29011 ft | 479 kts | 233° |
| 2026-05-07 16:12 | 22.11354 | -85.76797 | 27838 ft | 483 kts | 233° |
| 2026-05-07 16:12 | 22.09337 | -85.79657 | 26610 ft | 487 kts | 233° |
| 2026-05-07 16:13 | 22.07283 | -85.82578 | 25331 ft | 491 kts | 232° |
| 2026-05-07 16:13 | 22.05219 | -85.85513 | 24270 ft | 489 kts | 232° |
| 2026-05-07 16:13 | 22.03166 | -85.88428 | 23328 ft | 485 kts | 232° |
| 2026-05-07 16:13 | 22.01166 | -85.91267 | 23095 ft | 465 kts | 232° |
| 2026-05-07 16:14 | 21.99252 | -85.93985 | 22966 ft | 445 kts | 232° |
| 2026-05-07 16:14 | 21.97418 | -85.96593 | 22838 ft | 427 kts | 231° |
| 2026-05-07 16:14 | 21.95486 | -85.98928 | 22669 ft | 411 kts | 222° |
| 2026-05-07 16:14 | 21.93365 | -86.00956 | 22242 ft | 405 kts | 220° |
| 2026-05-07 16:15 | 21.91253 | -86.02945 | 21735 ft | 402 kts | 220° |
| 2026-05-07 16:15 | 21.89166 | -86.04904 | 21539 ft | 397 kts | 220° |
| 2026-05-07 16:15 | 21.87083 | -86.06859 | 21411 ft | 397 kts | 220° |
| 2026-05-07 16:15 | 21.85003 | -86.08815 | 21270 ft | 397 kts | 220° |
| 2026-05-07 16:16 | 21.82927 | -86.10768 | 21136 ft | 397 kts | 220° |
| 2026-05-07 16:16 | 21.80848 | -86.12724 | 21002 ft | 396 kts | 220° |
| 2026-05-07 16:16 | 21.78771 | -86.14674 | 20870 ft | 396 kts | 220° |
| 2026-05-07 16:16 | 21.76692 | -86.16625 | 20734 ft | 396 kts | 220° |
| 2026-05-07 16:17 | 21.74619 | -86.18572 | 20598 ft | 395 kts | 220° |
| 2026-05-07 16:17 | 21.72542 | -86.20524 | 20462 ft | 395 kts | 220° |
| 2026-05-07 16:17 | 21.70472 | -86.22469 | 20332 ft | 393 kts | 220° |
| 2026-05-07 16:17 | 21.68448 | -86.24373 | 20199 ft | 380 kts | 220° |
| 2026-05-07 16:18 | 21.66492 | -86.26213 | 20073 ft | 367 kts | 220° |
| 2026-05-07 16:18 | 21.64598 | -86.27993 | 19833 ft | 358 kts | 220° |
| 2026-05-07 16:18 | 21.62723 | -86.29750 | 19426 ft | 356 kts | 220° |
| 2026-05-07 16:18 | 21.60862 | -86.31493 | 19014 ft | 354 kts | 220° |
| 2026-05-07 16:19 | 21.59009 | -86.33229 | 18613 ft | 352 kts | 220° |
| 2026-05-07 16:19 | 21.57187 | -86.34937 | 18221 ft | 351 kts | 220° |
| 2026-05-07 16:19 | 21.55353 | -86.36655 | 17841 ft | 349 kts | 220° |
| 2026-05-07 16:19 | 21.53524 | -86.38368 | 17440 ft | 348 kts | 220° |
| 2026-05-07 16:20 | 21.51591 | -86.39907 | 17049 ft | 345 kts | 213° |
| 2026-05-07 16:20 | 21.49599 | -86.41332 | 16663 ft | 344 kts | 212° |
| 2026-05-07 16:20 | 21.47613 | -86.42754 | 16276 ft | 342 kts | 212° |
| 2026-05-07 16:20 | 21.45631 | -86.44171 | 15887 ft | 341 kts | 212° |
| 2026-05-07 16:21 | 21.43666 | -86.45576 | 15531 ft | 339 kts | 212° |
| 2026-05-07 16:21 | 21.41706 | -86.46974 | 15186 ft | 336 kts | 212° |
| 2026-05-07 16:21 | 21.39789 | -86.48341 | 14860 ft | 333 kts | 212° |
| 2026-05-07 16:21 | 21.37859 | -86.49718 | 14487 ft | 332 kts | 212° |
| 2026-05-07 16:22 | 21.35944 | -86.51084 | 14118 ft | 332 kts | 212° |
| 2026-05-07 16:22 | 21.34035 | -86.52448 | 13884 ft | 328 kts | 212° |
| 2026-05-07 16:22 | 21.32148 | -86.53801 | 13545 ft | 325 kts | 212° |
| 2026-05-07 16:22 | 21.30271 | -86.55146 | 13218 ft | 323 kts | 212° |
| 2026-05-07 16:23 | 21.28407 | -86.56482 | 12844 ft | 322 kts | 212° |
| 2026-05-07 16:23 | 21.26552 | -86.57809 | 12496 ft | 319 kts | 212° |
| 2026-05-07 16:23 | 21.24711 | -86.59126 | 12150 ft | 317 kts | 212° |
| 2026-05-07 16:23 | 21.22882 | -86.60433 | 11797 ft | 315 kts | 212° |
| 2026-05-07 16:24 | 21.21063 | -86.61728 | 11443 ft | 313 kts | 211° |
| 2026-05-07 16:24 | 21.19257 | -86.63013 | 11094 ft | 311 kts | 211° |
| 2026-05-07 16:24 | 21.17465 | -86.64289 | 10753 ft | 308 kts | 211° |
| 2026-05-07 16:24 | 21.15705 | -86.65543 | 10409 ft | 306 kts | 211° |
| 2026-05-07 16:25 | 21.13936 | -86.66805 | 10059 ft | 304 kts | 211° |
| 2026-05-07 16:25 | 21.12181 | -86.68059 | 9731 ft | 302 kts | 211° |
| 2026-05-07 16:25 | 21.10447 | -86.69299 | 9493 ft | 296 kts | 211° |
| 2026-05-07 16:25 | 21.08771 | -86.70520 | 9375 ft | 287 kts | 216° |
| 2026-05-07 16:26 | 21.07567 | -86.72166 | 9240 ft | 283 kts | 248° |
| 2026-05-07 16:26 | 21.07402 | -86.74217 | 9098 ft | 278 kts | 282° |
| 2026-05-07 16:26 | 21.08196 | -86.76088 | 8829 ft | 277 kts | 300° |
| 2026-05-07 16:26 | 21.08884 | -86.77246 | 8644 ft | 278 kts | 303° |
| 2026-05-07 16:27 | 21.10360 | -86.79505 | 8251 ft | 276 kts | 305° |
| 2026-05-07 16:27 | 21.11476 | -86.81175 | 7968 ft | 276 kts | 305° |
| 2026-05-07 16:27 | 21.12580 | -86.82850 | 7670 ft | 274 kts | 304° |
| 2026-05-07 16:27 | 21.13662 | -86.84522 | 7417 ft | 270 kts | 304° |
| 2026-05-07 16:28 | 21.14711 | -86.86170 | 7053 ft | 266 kts | 303° |
| 2026-05-07 16:28 | 21.15742 | -86.87807 | 6575 ft | 264 kts | 302° |
| 2026-05-07 16:28 | 21.16767 | -86.89450 | 6149 ft | 263 kts | 302° |
| 2026-05-07 16:28 | 21.17785 | -86.91089 | 5754 ft | 264 kts | 303° |
| 2026-05-07 16:29 | 21.18795 | -86.92707 | 5397 ft | 256 kts | 303° |
| 2026-05-07 16:29 | 21.19744 | -86.94233 | 5229 ft | 241 kts | 303° |
| 2026-05-07 16:29 | 21.20593 | -86.95728 | 5012 ft | 229 kts | 288° |
| 2026-05-07 16:29 | 21.20737 | -86.97354 | 4668 ft | 216 kts | 252° |
| 2026-05-07 16:30 | 21.20031 | -86.98699 | 4263 ft | 204 kts | 214° |
| 2026-05-07 16:30 | 21.18834 | -86.99459 | 3941 ft | 200 kts | 199° |
| 2026-05-07 16:30 | 21.17559 | -87.00049 | 3680 ft | 199 kts | 197° |
| 2026-05-07 16:30 | 21.16279 | -87.00612 | 3416 ft | 197 kts | 197° |
| 2026-05-07 16:31 | 21.14959 | -87.00908 | 3050 ft | 196 kts | 173° |
| 2026-05-07 16:31 | 21.13661 | -87.00551 | 2777 ft | 192 kts | 149° |
| 2026-05-07 16:31 | 21.12668 | -86.99649 | 2528 ft | 187 kts | 126° |
| 2026-05-07 16:31 | 21.11959 | -86.98525 | 2327 ft | 175 kts | 124° |
| 2026-05-07 16:32 | 21.11307 | -86.97477 | 2092 ft | 164 kts | 124° |
| 2026-05-07 16:32 | 21.10688 | -86.96484 | 1879 ft | 156 kts | 124° |
| 2026-05-07 16:32 | 21.10090 | -86.95527 | 1685 ft | 154 kts | 125° |
| 2026-05-07 16:32 | 21.09492 | -86.94572 | 1454 ft | 154 kts | 124° |
| 2026-05-07 16:33 | 21.08917 | -86.93636 | 1233 ft | 151 kts | 124° |
| 2026-05-07 16:33 | 21.08333 | -86.92703 | 1032 ft | 150 kts | 125° |
| 2026-05-07 16:33 | 21.07749 | -86.91782 | 819 ft | 149 kts | 125° |
| 2026-05-07 16:33 | 21.07178 | -86.90863 | 623 ft | 145 kts | 124° |
| 2026-05-07 16:34 | 21.06628 | -86.89980 | 461 ft | 141 kts | 124° |
| 2026-05-07 16:34 | 21.06085 | -86.89109 | 302 ft | 140 kts | 124° |
| 2026-05-07 16:34 | 21.05542 | -86.88240 | 108 ft | 141 kts | 124° |
| 2026-05-07 16:34 | 21.05011 | -86.87399 | 34 ft | 125 kts | 124° |
| 2026-05-07 16:35 | 21.04624 | -86.86777 | 32 ft | 76 kts | 123° |
| 2026-05-07 16:35 | 21.04429 | -86.86467 | 31 ft | 20 kts | 128° |
| 2026-05-07 16:35 | 21.04301 | -86.86388 | 31 ft | 22 kts | 155° |
| 2026-05-07 16:35 | 21.04164 | -86.86329 | 40 ft | 21 kts | 156° |
| 2026-05-07 16:36 | 21.04055 | -86.86225 | 45 ft | 21 kts | 158° |
| 2026-05-07 16:36 | 21.03940 | -86.86285 | 50 ft | 18 kts | 213° |
| 2026-05-07 16:36 | 21.03826 | -86.86365 | 49 ft | 22 kts | 213° |
| 2026-05-07 16:36 | 21.03697 | -86.86457 | 36 ft | 17 kts | 213° |
| 2026-05-07 16:37 | 21.03578 | -86.86540 | 29 ft | 20 kts | 213° |
| 2026-05-07 16:37 | 21.03452 | -86.86629 | 29 ft | 23 kts | 214° |
| 2026-05-07 16:37 | 21.03328 | -86.86718 | 30 ft | 19 kts | 214° |
| 2026-05-07 16:37 | 21.03313 | -86.86837 | 30 ft | 20 kts | 311° |
| 2026-05-07 16:38 | 21.03397 | -86.86968 | 30 ft | 23 kts | 302° |
| 2026-05-07 16:38 | 21.03457 | -86.87067 | 30 ft | 25 kts | 303° |
| 2026-05-07 16:38 | 21.03558 | -86.87229 | 31 ft | 28 kts | 304° |
| 2026-05-07 16:38 | 21.03708 | -86.87470 | 31 ft | 31 kts | 304° |
| 2026-05-07 16:39 | 21.03833 | -86.87667 | 30 ft | 33 kts | 304° |
| 2026-05-07 16:39 | 21.03964 | -86.87873 | 30 ft | 34 kts | 303° |
| 2026-05-07 16:39 | 21.04052 | -86.88017 | 30 ft | 35 kts | 303° |
| 2026-05-07 16:39 | 21.04169 | -86.88206 | 30 ft | 24 kts | 304° |
| 2026-05-07 16:40 | 21.04264 | -86.88357 | 31 ft | 25 kts | 304° |
| 2026-05-07 16:40 | 21.04385 | -86.88548 | 30 ft | 16 kts | 303° |
| 2026-05-07 16:40 | 21.04435 | -86.88604 | 31 ft | 16 kts | 349° |
| 2026-05-07 16:40 | 21.04538 | -86.88546 | 29 ft | 18 kts | 34° |
| 2026-05-07 16:41 | 21.04647 | -86.88468 | 29 ft | 19 kts | 33° |
| 2026-05-07 16:41 | 21.04757 | -86.88389 | 29 ft | 10 kts | 34° |
| 2026-05-07 16:41 | 21.04744 | -86.88333 | 29 ft | 7 kts | 124° |
| 2026-05-07 16:41 | 21.04738 | -86.88323 | 29 ft | 0 kts | 124° |